Aviation Digital Data Service (ADDS)

Output produced by METARs form (0031 UTC 17 July 2019)
found at http://www.aviationweather.gov/metar/data/
 
KSAC 162320Z 1700/1724 20010G15KT P6SM SKC 
     FM170800 17005KT P6SM SKC 
     FM172200 21008KT P6SM SKC
       
KSAF 162326Z 1700/1724 12015G25KT P6SM VCTS BKN080CB 
     TEMPO 1700/1703 VRB20G30KT 6SM -SHRA OVC070 
     FM170300 16010KT P6SM BKN090 
     FM170800 35009KT P6SM SCT100 
     FM171800 29013G23KT P6SM SCT120
       
KSAN 162320Z 1700/1806 23006KT P6SM OVC009 
     FM171000 18005KT 3SM BR OVC006 
     FM171600 18007KT 6SM HZ BKN009 
     FM171900 20010KT P6SM SCT012 
     FM180100 23006KT P6SM BKN012
       
KSAT 162320Z 1700/1806 15012KT P6SM FEW040 SCT250 
     FM170900 14007KT P6SM BKN012 
     FM171600 16012G19KT P6SM SCT025 BKN050
       
KSAV 162325Z 1700/1724 15007KT P6SM BKN200 
     FM170400 VRB03KT P6SM SCT200 
     FM171800 20006KT P6SM SCT040
       
KSBA 162329Z 1700/1724 15008KT P6SM SKC 
     FM170300 13005KT P6SM SKC 
     FM171000 VRB03KT P6SM SKC 
     FM171700 15006KT P6SM SKC 
     FM172000 21008KT P6SM SKC
       
KSBD 162320Z 1700/1724 24011KT P6SM SKC 
     FM170400 VRB05KT P6SM SKC 
     FM172200 23011KT P6SM SKC
       
KSBN 162326Z 1700/1724 19008KT P6SM -SHRA SCT025 BKN040 
     TEMPO 1700/1702 4SM -TSRA BKN025CB 
     FM170800 VRB03KT 4SM BR BKN010 
     FM171600 34007KT P6SM SCT040
       
KSBP 162329Z 1700/1724 31017KT P6SM SKC 
     FM170400 31010KT P6SM SKC 
     FM171000 VRB03KT P6SM BKN007 
     FM171200 30005KT 1SM BR OVC002 
     FM171500 30005KT 5SM BR OVC005 
     FM171900 29010KT P6SM SKC
       
KSBY 162342Z 1700/1724 16009KT P6SM VCTS SCT040CB SCT150 
     TEMPO 1700/1701 24015G25KT 
     FM170100 18003KT P6SM SCT150 
     FM171400 22008KT P6SM SCT250 
     FM171800 20010G18KT P6SM SCT250
       
KSCK 162320Z 1700/1724 25014G20KT P6SM SKC 
     FM170500 28009KT P6SM SKC
       
KSDF 162327Z 1700/1806 20014G21KT P6SM SCT200 
     FM170100 20013KT P6SM SCT029 SCT250 
     FM170800 21010KT P6SM SCT020 
     FM171000 21010KT P6SM VCTS BKN020CB 
     FM171400 22012KT P6SM SCT030
       
KSDL 162334Z 1700/1724 25011G18KT P6SM FEW120 FEW200 
     FM170400 24008KT P6SM FEW120 
     FM170700 VRB03KT P6SM FEW120 
     FM171400 17006KT P6SM FEW120 
     FM172000 24009KT P6SM FEW120 SCT250
       
KSDY 162326Z 1700/1724 14007KT P6SM VCSH SKC 
     FM170800 VRB03KT P6SM BKN024 
     FM171500 VRB05KT P6SM SCT070
       
KSEA 162321Z 1700/1806 VRB04KT P6SM SCT040 BKN250 
     FM170900 21006KT P6SM BKN040 
     FM171200 18008KT P6SM OVC030 
     FM171700 18012KT P6SM -RA OVC025 
     FM172100 21012KT P6SM -SHRA BKN025 BKN050
       
KSEZ 162320Z 1700/1724 19010G20KT P6SM SKC 
     FM170200 VRB06KT P6SM SKC 
     FM171900 20012G22KT P6SM FEW100
       
KSFB 162341Z 1700/1724 13005KT P6SM FEW110 SCT250 
     FM171400 18004KT P6SM SCT030 
     FM172000 12008KT P6SM VCTS SCT050CB SCT250
       
KSFF 162320Z 1700/1724 VRB05KT P6SM VCSH SCT050 BKN080 
     FM170300 VRB03KT P6SM FEW060 SCT120 
     FM170900 VRB02KT P6SM SCT060 BKN150 
     FM171500 20010G17KT P6SM BKN100 
     FM171800 23014G21KT P6SM VCSH SCT050 BKN090
       
KSFO 162340Z 1700/1806 28030G40KT P6SM FEW012 
     FM170400 28017G24KT P6SM FEW010 
     FM170500 VRB04KT P6SM FEW008 
     FM171400 04006KT P6SM FEW008 
     FM172100 30018G26KT P6SM FEW010 
     FM180400 28012KT P6SM FEW010
       
KSGF 162331Z 1700/1724 27011G16KT P6SM BKN035 
     FM170300 18006KT P6SM FEW250 
     FM171500 22009KT P6SM FEW250
       
KSGJ 162347Z 1700/1724 14008KT P6SM FEW050 SCT250 
     FM170300 22004KT P6SM SCT250 
     FM170800 26003KT P6SM SCT250 
     FM171400 27005KT P6SM FEW030 SCT250 
     FM171800 12008KT P6SM VCTS SCT040CB BKN250
       
KSGU 162320Z 1700/1724 22018G28KT P6SM FEW150 
     FM170200 14007KT P6SM SKC 
     FM172000 23018G28KT P6SM SKC
       
KSHR 162334Z 1700/1724 28004KT P6SM VCTS SCT050CB BKN100 
     TEMPO 1700/1702 5SM TSRA BKN050CB 
     FM170400 VRB04KT P6SM BKN080 
     FM171000 VRB04KT P6SM FEW100
       
KSHV 162335Z 1700/1724 24010KT P6SM FEW050 
     FM170200 20007KT P6SM SKC 
     TEMPO 1709/1713 4SM BR BKN010 
     FM171500 22010KT P6SM SCT035
       
KSJC 162340Z 1700/1724 33015KT P6SM SKC 
     FM170300 30008KT P6SM SKC 
     FM170800 VRB03KT P6SM FEW010 
     FM171700 34014KT P6SM SKC
       
KSJT 162320Z 1700/1724 16012KT P6SM FEW080 
     FM170100 16009KT P6SM SKC 
     FM171500 18014G21KT P6SM SKC
       
TAF KSKA 161900Z 1619/1801 20009KT 9999 FEW050 SCT200 QNH2989INS 
     BECMG 1700/1701 24009KT 9999 SCT060 SCT080 QNH2987INS 
     BECMG 1716/1718 20010G20KT 9999 BKN070 OVC100 620906 QNH2982INS TX24/1700Z
TN15/1712Z
       
TAF AMD KSKF 162235Z 1622/1724 14014G20KT 9999 SCT050 QNH2987INS 
     TEMPO 1700/1705 14017G25KT 
     BECMG 1704/1705 15009KT 9999 SCT020 QNH2992INS 
     BECMG 1709/1710 VRB06KT 9999 OVC010 QNH3000INS 
     BECMG 1715/1716 16015KT 9999 SCT020 QNH2995INS TX36/1623Z TN26/1711Z
       
KSLC 162320Z 1700/1806 32008KT P6SM SCT120 
     FM170900 16006KT P6SM FEW120 
     FM171700 32008KT P6SM SCT120 
     FM180300 17007KT P6SM FEW120
       
KSLE 162320Z 1700/1724 28009KT P6SM BKN060 
     FM170800 22004KT P6SM BKN025 
     FM171200 18008KT P6SM OVC025 
     FM171800 18011KT P6SM SCT025 OVC050
       
TAF KSLI 162105Z 1621/1803 VRB06KT 9999 SKC QNH2976INS 
     BECMG 1708/1709 VRB06KT 9999 SCT010 QNH2983INS 
     BECMG 1718/1719 VRB06KT 9999 SKC QNH2989INS TX28/1623Z TN18/1714Z
       
KSLK 162323Z 1700/1724 23009KT P6SM FEW150 
     FM170800 24007KT P6SM VCSH BKN021 
     FM171800 27005KT P6SM VCSH OVC014 
     FM172000 30006KT 4SM SHRA BR OVC021
       
KSLN 162328Z 1700/1724 17011KT P6SM FEW250 
     FM170700 18010KT P6SM FEW250 WS020/22035KT 
     FM171200 18011KT P6SM FEW250
       
KSME 162335Z 1700/1724 18006KT P6SM VCSH SCT050 SCT100 
     FM170100 18004KT P6SM VCTS BKN050CB BKN100 
     FM170200 18003KT P6SM SCT050 BKN100 
     FM170700 VRB05KT P6SM VCSH BKN050 
     FM171400 24009G18KT 6SM -TSRA BKN025CB OVC050 
     FM172200 25009KT P6SM VCSH BKN025
       
KSMF 162320Z 1700/1724 22009KT P6SM SKC 
     FM170300 17012KT P6SM SKC 
     FM171200 15005KT P6SM SKC
       
KSMN 162333Z 1700/1724 30008KT P6SM VCTS SCT050CB 
     FM170300 35007KT P6SM SCT050 
     FM171600 27010G25KT P6SM FEW090
       
KSMO 162329Z 1700/1724 24008KT P6SM SKC 
     FM170200 VRB03KT P6SM SKC 
     FM170600 VRB03KT 3SM BR OVC006 
     FM171600 23005KT 5SM HZ OVC008 
     FM171900 23008KT P6SM SKC
       
KSMX 162329Z 1700/1724 30015KT P6SM SKC 
     FM170300 32010KT P6SM SKC 
     FM170800 30006KT 4SM BR OVC006 
     FM171000 32005KT 1SM BR OVC002 
     FM171500 VRB03KT 4SM BR OVC003 
     FM171900 30010KT P6SM SKC
       
KSNA 162320Z 1700/1724 21011KT P6SM FEW008 
     FM170300 20006KT P6SM SCT008 
     FM170500 15007KT 4SM BR BKN007 
     FM171800 19010KT P6SM SCT010
       
KSNS 162340Z 1700/1724 30013G20KT P6SM SKC 
     FM170300 29011KT P6SM SKC 
     FM170500 29006KT P6SM FEW008 
     TEMPO 1706/1710 BKN008 
     FM171000 VRB05KT 6SM BR OVC008 
     TEMPO 1710/1714 2SM -DZ BR OVC004 
     FM171700 VRB05KT P6SM OVC012 
     FM172000 12008KT P6SM FEW014 
     FM172300 29012KT P6SM FEW014
       
KSNY 162320Z 1700/1724 15013KT P6SM VCTS BKN080CB 
     TEMPO 1700/1703 VRB20G35KT 4SM TSRA BKN040CB 
     FM170300 15010KT P6SM BKN080 
     FM170800 21008KT P6SM SKC 
     FM171500 35012KT P6SM SKC 
     FM171900 05010KT P6SM SCT060
       
KSPS 162320Z 1700/1724 16012KT P6SM SCT250 
     FM171400 20015G24KT P6SM SCT070 SCT250
       
KSRQ 162335Z 1700/1724 16012KT P6SM VCTS SCT040CB BKN050 
     FM170300 VRB03KT P6SM SCT035 BKN200 
     FM171800 25007KT P6SM VCTS FEW035CB SCT200 
     FM172300 31006KT P6SM VCTS SCT030CB BKN200
       
TAF KSSC 162300Z 1623/1805 VRB06KT 9999 FEW060 QNH3006INS 
     BECMG 1716/1717 24009KT 9999 VCTS SCT040CB SCT120 QNH3003INS 
     TEMPO 1717/1722 6000 -TSRA BKN040CB 
     BECMG 1723/1724 21009KT 9999 NSW FEW040 QNH3000INS TX36/1720Z TN24/1710Z
       
KSSF 162320Z 1700/1724 14010KT P6SM FEW040 SCT250 
     FM170900 13007KT P6SM BKN012 
     FM171600 15012G19KT P6SM SCT025 BKN050
       
KSTC 162338Z 1700/1724 00000KT P6SM FEW070 
     FM171200 12004KT P6SM VCSH BKN050 OVC100 
     FM171500 15009KT P6SM BKN100 
     FM172000 16012G18KT P6SM SCT040 BKN100 
     PROB30 1721/1724 3SM TSRA BR OVC035CB
       
KSTL 162330Z 1700/1806 VRB04KT P6SM BKN080 
     FM171800 20008KT P6SM SCT050 
     FM180100 17005KT P6SM FEW050
       
KSTS 162340Z 1700/1724 33014KT P6SM SKC WS015/33035KT 
     FM170400 31005KT P6SM SKC 
     FM171000 32008KT P6SM SKC
       
KSUA 162341Z 1700/1724 11009KT P6SM SCT025 
     FM170200 18003KT P6SM FEW250 
     FM171400 14007KT P6SM SCT025 SCT250 
     FM171600 10010KT P6SM VCTS SCT030CB
       
KSUN 162325Z 1700/1806 20007KT P6SM VCTS SCT080CB BKN120 
     FM170400 31010KT P6SM SKC 
     FM171800 15010KT P6SM SCT120 
     FM172100 22010G20KT P6SM BKN120 
     FM180400 31008KT P6SM SKC AMD LTD TO CLD VIS AND WIND 1705/1713
       
KSUS 162330Z 1700/1724 VRB03KT P6SM SCT090 
     FM170900 00000KT 4SM BR SCT060 
     FM171300 VRB03KT P6SM SCT040
       
TAF KSUU 161900Z 1619/1801 23012G18KT 9999 SKC QNH2981INS 
     BECMG 1621/1622 23015G25KT 9999 SKC QNH2975INS 
     BECMG 1715/1716 23012KT 9999 SKC QNH2974INS TX34/1622Z TN14/1712Z
       
KSUX 162320Z 1700/1724 13006KT P6SM SCT040 
     FM171700 14013G19KT P6SM SCT150 
     FM172200 16010KT P6SM SCT150
       
KSWF 162341Z 1700/1806 25010KT P6SM BKN250 
     FM170100 VRB04KT P6SM SCT150 BKN250 
     FM171600 24010G16KT P6SM SCT100 BKN200 
     FM172100 24007KT P6SM VCSH SCT050 BKN100 
     PROB30 1721/1724 3SM TSRA BKN025 BKN040CB 
     FM180000 24005KT 5SM -SHRA BR SCT025 BKN050 
     PROB30 1800/1806 3SM TSRA BKN025 BKN040CB AMD NOT SKED
       
KSYR 162321Z 1700/1724 22005KT P6SM BKN080 
     FM170900 23005KT 4SM SHRA BR SCT015 OVC025 
     FM171500 29005KT P6SM -SHRA OVC022
       
TAF KSZL 1619/1801 VRB06KT 9999 SCT030 QNH2983INS WND 18009KT AFT 1622
TX29/1622Z TN20/1711Z